sensor_id;sensor_type;location;lat;lon;timestamp;P1;durP1;ratioP1;P2;durP2;ratioP2
10389;SDS011;5241;47.830;12.972;2022-08-01T00:01:42;2.73;;;2.50;;
10389;SDS011;5241;47.830;12.972;2022-08-01T00:04:08;3.17;;;2.40;;
10389;SDS011;5241;47.830;12.972;2022-08-01T00:06:33;3.43;;;2.67;;
10389;SDS011;5241;47.830;12.972;2022-08-01T00:08:59;2.80;;;2.53;;
10389;SDS011;5241;47.830;12.972;2022-08-01T00:11:24;3.23;;;2.30;;
10389;SDS011;5241;47.830;12.972;2022-08-01T00:13:50;3.97;;;2.70;;
10389;SDS011;5241;47.830;12.972;2022-08-01T00:16:15;3.27;;;2.43;;
10389;SDS011;5241;47.830;12.972;2022-08-01T00:18:41;4.07;;;2.47;;
10389;SDS011;5241;47.830;12.972;2022-08-01T00:21:07;3.57;;;2.67;;
10389;SDS011;5241;47.830;12.972;2022-08-01T00:23:32;6.63;;;2.80;;
10389;SDS011;5241;47.830;12.972;2022-08-01T00:25:58;3.50;;;2.50;;
10389;SDS011;5241;47.830;12.972;2022-08-01T00:28:24;4.90;;;2.40;;
10389;SDS011;5241;47.830;12.972;2022-08-01T00:30:49;7.20;;;2.80;;
10389;SDS011;5241;47.830;12.972;2022-08-01T00:33:15;6.20;;;2.33;;
10389;SDS011;5241;47.830;12.972;2022-08-01T00:35:40;4.00;;;2.40;;
10389;SDS011;5241;47.830;12.972;2022-08-01T00:38:06;3.07;;;2.57;;
10389;SDS011;5241;47.830;12.972;2022-08-01T00:40:31;5.43;;;2.90;;
10389;SDS011;5241;47.830;12.972;2022-08-01T00:42:57;3.20;;;2.57;;
10389;SDS011;5241;47.830;12.972;2022-08-01T00:45:23;3.33;;;2.60;;
10389;SDS011;5241;47.830;12.972;2022-08-01T00:47:48;5.83;;;2.57;;
10389;SDS011;5241;47.830;12.972;2022-08-01T00:50:14;3.17;;;2.73;;
10389;SDS011;5241;47.830;12.972;2022-08-01T00:52:40;2.70;;;2.30;;
10389;SDS011;5241;47.830;12.972;2022-08-01T00:55:07;2.93;;;2.67;;
10389;SDS011;5241;47.830;12.972;2022-08-01T00:57:34;3.97;;;2.67;;
10389;SDS011;5241;47.830;12.972;2022-08-01T01:00:00;2.70;;;2.40;;
10389;SDS011;5241;47.830;12.972;2022-08-01T01:02:26;2.47;;;2.27;;
10389;SDS011;5241;47.830;12.972;2022-08-01T01:04:52;3.63;;;2.40;;
10389;SDS011;5241;47.830;12.972;2022-08-01T01:12:44;2.60;;;2.40;;
10389;SDS011;5241;47.830;12.972;2022-08-01T01:15:17;2.63;;;2.33;;
10389;SDS011;5241;47.830;12.972;2022-08-01T01:17:58;4.90;;;2.10;;
10389;SDS011;5241;47.830;12.972;2022-08-01T01:20:29;2.80;;;2.60;;
10389;SDS011;5241;47.830;12.972;2022-08-01T01:23:10;2.60;;;2.37;;
10389;SDS011;5241;47.830;12.972;2022-08-01T01:31:40;3.53;;;2.20;;
10389;SDS011;5241;47.830;12.972;2022-08-01T01:34:09;3.03;;;2.37;;
10389;SDS011;5241;47.830;12.972;2022-08-01T01:36:37;3.97;;;2.53;;
10389;SDS011;5241;47.830;12.972;2022-08-01T01:39:04;4.30;;;2.60;;
10389;SDS011;5241;47.830;12.972;2022-08-01T01:41:32;3.17;;;2.43;;
10389;SDS011;5241;47.830;12.972;2022-08-01T01:43:58;3.33;;;2.30;;
10389;SDS011;5241;47.830;12.972;2022-08-01T01:46:25;2.93;;;2.67;;
10389;SDS011;5241;47.830;12.972;2022-08-01T01:48:54;4.67;;;2.63;;
10389;SDS011;5241;47.830;12.972;2022-08-01T01:51:22;3.30;;;2.43;;
10389;SDS011;5241;47.830;12.972;2022-08-01T01:53:49;4.33;;;2.77;;
10389;SDS011;5241;47.830;12.972;2022-08-01T01:56:18;3.50;;;2.30;;
10389;SDS011;5241;47.830;12.972;2022-08-01T01:58:44;2.77;;;2.50;;
10389;SDS011;5241;47.830;12.972;2022-08-01T02:01:13;3.47;;;2.50;;
10389;SDS011;5241;47.830;12.972;2022-08-01T02:03:40;2.73;;;2.50;;
10389;SDS011;5241;47.830;12.972;2022-08-01T02:06:08;3.63;;;2.50;;
10389;SDS011;5241;47.830;12.972;2022-08-01T02:08:34;2.80;;;2.60;;
10389;SDS011;5241;47.830;12.972;2022-08-01T02:11:01;2.87;;;2.60;;
10389;SDS011;5241;47.830;12.972;2022-08-01T02:13:43;2.83;;;2.63;;
10389;SDS011;5241;47.830;12.972;2022-08-01T02:16:13;3.83;;;2.70;;
10389;SDS011;5241;47.830;12.972;2022-08-01T02:18:40;2.60;;;2.40;;
10389;SDS011;5241;47.830;12.972;2022-08-01T02:21:08;2.50;;;2.30;;
10389;SDS011;5241;47.830;12.972;2022-08-01T02:23:37;2.80;;;2.50;;
10389;SDS011;5241;47.830;12.972;2022-08-01T02:26:06;2.80;;;2.60;;
10389;SDS011;5241;47.830;12.972;2022-08-01T02:28:36;5.87;;;2.30;;
10389;SDS011;5241;47.830;12.972;2022-08-01T02:31:07;2.53;;;2.33;;
10389;SDS011;5241;47.830;12.972;2022-08-01T02:33:40;3.40;;;2.50;;
10389;SDS011;5241;47.830;12.972;2022-08-01T02:36:09;2.67;;;2.40;;
10389;SDS011;5241;47.830;12.972;2022-08-01T02:38:37;2.93;;;2.63;;
10389;SDS011;5241;47.830;12.972;2022-08-01T02:41:07;4.30;;;2.90;;
10389;SDS011;5241;47.830;12.972;2022-08-01T02:43:36;2.83;;;2.37;;
10389;SDS011;5241;47.830;12.972;2022-08-01T02:46:06;4.80;;;2.73;;
10389;SDS011;5241;47.830;12.972;2022-08-01T02:48:34;3.77;;;3.10;;
10389;SDS011;5241;47.830;12.972;2022-08-01T02:51:03;3.53;;;2.90;;
10389;SDS011;5241;47.830;12.972;2022-08-01T02:53:32;4.00;;;3.23;;
10389;SDS011;5241;47.830;12.972;2022-08-01T02:56:02;3.80;;;2.77;;
10389;SDS011;5241;47.830;12.972;2022-08-01T02:58:30;4.47;;;2.90;;
10389;SDS011;5241;47.830;12.972;2022-08-01T03:00:58;4.00;;;2.90;;
10389;SDS011;5241;47.830;12.972;2022-08-01T03:03:24;3.03;;;2.83;;
10389;SDS011;5241;47.830;12.972;2022-08-01T03:05:50;3.23;;;2.93;;
10389;SDS011;5241;47.830;12.972;2022-08-01T03:08:16;2.97;;;2.73;;
10389;SDS011;5241;47.830;12.972;2022-08-01T03:10:45;5.70;;;3.00;;
10389;SDS011;5241;47.830;12.972;2022-08-01T03:13:11;3.73;;;2.90;;
10389;SDS011;5241;47.830;12.972;2022-08-01T03:15:39;3.10;;;2.80;;
10389;SDS011;5241;47.830;12.972;2022-08-01T03:18:08;4.17;;;2.77;;
10389;SDS011;5241;47.830;12.972;2022-08-01T03:20:35;3.27;;;2.53;;
10389;SDS011;5241;47.830;12.972;2022-08-01T03:23:02;2.70;;;2.50;;
10389;SDS011;5241;47.830;12.972;2022-08-01T03:25:30;3.70;;;3.13;;
10389;SDS011;5241;47.830;12.972;2022-08-01T03:27:58;3.20;;;2.50;;
10389;SDS011;5241;47.830;12.972;2022-08-01T03:30:27;3.20;;;2.90;;
10389;SDS011;5241;47.830;12.972;2022-08-01T03:32:54;4.67;;;3.10;;
10389;SDS011;5241;47.830;12.972;2022-08-01T03:35:20;3.13;;;2.87;;
10389;SDS011;5241;47.830;12.972;2022-08-01T03:37:49;5.90;;;2.90;;
10389;SDS011;5241;47.830;12.972;2022-08-01T03:40:20;4.73;;;2.80;;
10389;SDS011;5241;47.830;12.972;2022-08-01T03:42:49;3.27;;;2.97;;
10389;SDS011;5241;47.830;12.972;2022-08-01T03:45:19;4.17;;;3.00;;
10389;SDS011;5241;47.830;12.972;2022-08-01T03:47:48;6.10;;;3.30;;
10389;SDS011;5241;47.830;12.972;2022-08-01T03:50:16;3.87;;;3.07;;
10389;SDS011;5241;47.830;12.972;2022-08-01T03:52:45;3.53;;;2.90;;
10389;SDS011;5241;47.830;12.972;2022-08-01T03:55:12;4.87;;;2.77;;
10389;SDS011;5241;47.830;12.972;2022-08-01T03:57:41;4.20;;;3.10;;
10389;SDS011;5241;47.830;12.972;2022-08-01T04:00:09;5.83;;;3.20;;
10389;SDS011;5241;47.830;12.972;2022-08-01T04:02:35;3.33;;;2.73;;
10389;SDS011;5241;47.830;12.972;2022-08-01T04:05:02;3.83;;;3.03;;
10389;SDS011;5241;47.830;12.972;2022-08-01T04:07:29;3.10;;;2.73;;
10389;SDS011;5241;47.830;12.972;2022-08-01T04:09:56;3.10;;;2.90;;
10389;SDS011;5241;47.830;12.972;2022-08-01T04:12:22;3.80;;;3.40;;
10389;SDS011;5241;47.830;12.972;2022-08-01T04:14:48;4.20;;;3.47;;
10389;SDS011;5241;47.830;12.972;2022-08-01T04:17:14;4.20;;;3.20;;
10389;SDS011;5241;47.830;12.972;2022-08-01T04:19:40;5.27;;;3.33;;
10389;SDS011;5241;47.830;12.972;2022-08-01T04:22:07;5.83;;;2.90;;
10389;SDS011;5241;47.830;12.972;2022-08-01T04:24:34;4.43;;;3.60;;
10389;SDS011;5241;47.830;12.972;2022-08-01T04:27:01;5.33;;;3.40;;
10389;SDS011;5241;47.830;12.972;2022-08-01T04:29:30;4.60;;;3.07;;
10389;SDS011;5241;47.830;12.972;2022-08-01T04:31:57;3.00;;;2.77;;
10389;SDS011;5241;47.830;12.972;2022-08-01T04:34:25;4.73;;;3.00;;
10389;SDS011;5241;47.830;12.972;2022-08-01T04:36:55;4.87;;;3.20;;
10389;SDS011;5241;47.830;12.972;2022-08-01T04:39:23;4.47;;;3.13;;
10389;SDS011;5241;47.830;12.972;2022-08-01T04:41:52;4.00;;;3.17;;
10389;SDS011;5241;47.830;12.972;2022-08-01T04:44:21;3.30;;;3.00;;
10389;SDS011;5241;47.830;12.972;2022-08-01T04:46:47;4.13;;;3.10;;
10389;SDS011;5241;47.830;12.972;2022-08-01T04:49:14;3.30;;;2.80;;
10389;SDS011;5241;47.830;12.972;2022-08-01T04:51:50;3.30;;;3.00;;
10389;SDS011;5241;47.830;12.972;2022-08-01T04:54:22;4.70;;;3.13;;
10389;SDS011;5241;47.830;12.972;2022-08-01T04:56:54;3.60;;;3.30;;
10389;SDS011;5241;47.830;12.972;2022-08-01T04:59:24;7.43;;;2.93;;
10389;SDS011;5241;47.830;12.972;2022-08-01T05:02:10;5.03;;;2.97;;
10389;SDS011;5241;47.830;12.972;2022-08-01T05:04:41;3.60;;;2.93;;
10389;SDS011;5241;47.830;12.972;2022-08-01T05:07:07;4.40;;;2.80;;
10389;SDS011;5241;47.830;12.972;2022-08-01T05:09:34;4.90;;;3.10;;
10389;SDS011;5241;47.830;12.972;2022-08-01T05:12:03;3.93;;;2.70;;
10389;SDS011;5241;47.830;12.972;2022-08-01T05:14:30;3.43;;;3.13;;
10389;SDS011;5241;47.830;12.972;2022-08-01T05:16:57;4.67;;;2.83;;
10389;SDS011;5241;47.830;12.972;2022-08-01T05:19:24;5.23;;;3.10;;
10389;SDS011;5241;47.830;12.972;2022-08-01T05:21:50;6.33;;;2.90;;
10389;SDS011;5241;47.830;12.972;2022-08-01T05:24:15;4.97;;;2.70;;
10389;SDS011;5241;47.830;12.972;2022-08-01T05:26:41;3.10;;;2.80;;
10389;SDS011;5241;47.830;12.972;2022-08-01T05:29:07;5.17;;;2.70;;
10389;SDS011;5241;47.830;12.972;2022-08-01T05:31:32;6.00;;;3.00;;
10389;SDS011;5241;47.830;12.972;2022-08-01T05:34:01;4.13;;;2.53;;
10389;SDS011;5241;47.830;12.972;2022-08-01T05:36:27;5.10;;;3.00;;
10389;SDS011;5241;47.830;12.972;2022-08-01T05:38:53;5.43;;;3.37;;
10389;SDS011;5241;47.830;12.972;2022-08-01T05:41:18;7.93;;;3.03;;
10389;SDS011;5241;47.830;12.972;2022-08-01T05:43:44;4.17;;;2.43;;
10389;SDS011;5241;47.830;12.972;2022-08-01T05:46:09;5.07;;;3.00;;
10389;SDS011;5241;47.830;12.972;2022-08-01T05:48:35;5.03;;;2.80;;
10389;SDS011;5241;47.830;12.972;2022-08-01T05:51:00;4.40;;;2.67;;
10389;SDS011;5241;47.830;12.972;2022-08-01T05:53:26;3.27;;;2.83;;
10389;SDS011;5241;47.830;12.972;2022-08-01T05:55:51;4.33;;;2.57;;
10389;SDS011;5241;47.830;12.972;2022-08-01T05:58:17;4.17;;;2.90;;
10389;SDS011;5241;47.830;12.972;2022-08-01T06:00:42;6.50;;;3.30;;
10389;SDS011;5241;47.830;12.972;2022-08-01T06:03:08;4.47;;;2.40;;
10389;SDS011;5241;47.830;12.972;2022-08-01T06:05:33;5.67;;;2.77;;
10389;SDS011;5241;47.830;12.972;2022-08-01T06:07:59;6.33;;;2.90;;
10389;SDS011;5241;47.830;12.972;2022-08-01T06:10:24;5.33;;;2.57;;
10389;SDS011;5241;47.830;12.972;2022-08-01T06:12:50;3.30;;;2.40;;
10389;SDS011;5241;47.830;12.972;2022-08-01T06:15:15;8.77;;;2.90;;
10389;SDS011;5241;47.830;12.972;2022-08-01T06:17:41;2.57;;;2.23;;
10389;SDS011;5241;47.830;12.972;2022-08-01T06:20:07;7.57;;;2.60;;
10389;SDS011;5241;47.830;12.972;2022-08-01T06:22:33;3.40;;;2.40;;
10389;SDS011;5241;47.830;12.972;2022-08-01T06:24:59;4.20;;;2.53;;
10389;SDS011;5241;47.830;12.972;2022-08-01T06:27:24;5.83;;;2.73;;
10389;SDS011;5241;47.830;12.972;2022-08-01T06:29:51;2.97;;;2.27;;
10389;SDS011;5241;47.830;12.972;2022-08-01T06:32:18;2.73;;;2.20;;
10389;SDS011;5241;47.830;12.972;2022-08-01T06:34:51;4.47;;;2.40;;
10389;SDS011;5241;47.830;12.972;2022-08-01T06:37:17;2.93;;;2.33;;
10389;SDS011;5241;47.830;12.972;2022-08-01T06:39:43;4.03;;;2.40;;
10389;SDS011;5241;47.830;12.972;2022-08-01T06:42:08;3.73;;;2.70;;
10389;SDS011;5241;47.830;12.972;2022-08-01T06:44:34;3.77;;;2.37;;
10389;SDS011;5241;47.830;12.972;2022-08-01T06:47:00;3.13;;;2.50;;
10389;SDS011;5241;47.830;12.972;2022-08-01T06:49:25;2.83;;;2.30;;
10389;SDS011;5241;47.830;12.972;2022-08-01T06:51:51;3.17;;;2.30;;
10389;SDS011;5241;47.830;12.972;2022-08-01T06:54:16;3.57;;;2.30;;
10389;SDS011;5241;47.830;12.972;2022-08-01T06:56:42;2.00;;;1.90;;
10389;SDS011;5241;47.830;12.972;2022-08-01T06:59:08;2.40;;;1.87;;
10389;SDS011;5241;47.830;12.972;2022-08-01T07:01:33;2.70;;;2.40;;
10389;SDS011;5241;47.830;12.972;2022-08-01T07:03:59;2.73;;;2.20;;
10389;SDS011;5241;47.830;12.972;2022-08-01T07:06:24;2.93;;;2.30;;
10389;SDS011;5241;47.830;12.972;2022-08-01T07:08:51;2.50;;;2.30;;
10389;SDS011;5241;47.830;12.972;2022-08-01T07:11:17;2.50;;;2.30;;
10389;SDS011;5241;47.830;12.972;2022-08-01T07:13:43;2.67;;;2.47;;
10389;SDS011;5241;47.830;12.972;2022-08-01T07:16:10;3.13;;;2.50;;
10389;SDS011;5241;47.830;12.972;2022-08-01T07:18:40;2.37;;;2.17;;
10389;SDS011;5241;47.830;12.972;2022-08-01T07:21:06;3.43;;;2.40;;
10389;SDS011;5241;47.830;12.972;2022-08-01T07:23:32;2.70;;;2.50;;
10389;SDS011;5241;47.830;12.972;2022-08-01T07:25:57;2.60;;;2.40;;
10389;SDS011;5241;47.830;12.972;2022-08-01T07:28:23;4.10;;;2.57;;
10389;SDS011;5241;47.830;12.972;2022-08-01T07:30:49;5.23;;;2.50;;
10389;SDS011;5241;47.830;12.972;2022-08-01T07:33:15;3.43;;;2.67;;
10389;SDS011;5241;47.830;12.972;2022-08-01T07:35:40;3.13;;;2.40;;
10389;SDS011;5241;47.830;12.972;2022-08-01T07:38:06;3.07;;;2.77;;
10389;SDS011;5241;47.830;12.972;2022-08-01T07:40:32;2.60;;;2.40;;
10389;SDS011;5241;47.830;12.972;2022-08-01T07:42:58;2.73;;;2.40;;
10389;SDS011;5241;47.830;12.972;2022-08-01T07:45:23;2.87;;;2.60;;
10389;SDS011;5241;47.830;12.972;2022-08-01T07:47:49;4.03;;;2.37;;
10389;SDS011;5241;47.830;12.972;2022-08-01T07:50:15;3.30;;;2.93;;
10389;SDS011;5241;47.830;12.972;2022-08-01T07:52:41;3.13;;;2.83;;
10389;SDS011;5241;47.830;12.972;2022-08-01T07:55:07;2.73;;;2.53;;
10389;SDS011;5241;47.830;12.972;2022-08-01T07:57:34;2.47;;;2.27;;
10389;SDS011;5241;47.830;12.972;2022-08-01T08:00:00;2.97;;;2.50;;
10389;SDS011;5241;47.830;12.972;2022-08-01T08:02:26;3.13;;;2.30;;
10389;SDS011;5241;47.830;12.972;2022-08-01T08:04:51;2.50;;;2.30;;
10389;SDS011;5241;47.830;12.972;2022-08-01T08:07:17;2.70;;;2.50;;
10389;SDS011;5241;47.830;12.972;2022-08-01T08:09:43;2.80;;;2.50;;
10389;SDS011;5241;47.830;12.972;2022-08-01T08:12:08;3.67;;;2.73;;
10389;SDS011;5241;47.830;12.972;2022-08-01T08:14:34;2.50;;;2.30;;
10389;SDS011;5241;47.830;12.972;2022-08-01T08:17:00;2.80;;;2.20;;
10389;SDS011;5241;47.830;12.972;2022-08-01T08:19:25;2.97;;;2.43;;
10389;SDS011;5241;47.830;12.972;2022-08-01T08:21:51;3.43;;;2.40;;
10389;SDS011;5241;47.830;12.972;2022-08-01T08:24:16;4.50;;;2.73;;
10389;SDS011;5241;47.830;12.972;2022-08-01T08:26:45;2.70;;;2.50;;
10389;SDS011;5241;47.830;12.972;2022-08-01T08:29:15;2.67;;;2.43;;
10389;SDS011;5241;47.830;12.972;2022-08-01T08:31:41;2.70;;;2.50;;
10389;SDS011;5241;47.830;12.972;2022-08-01T08:34:07;2.40;;;2.20;;
10389;SDS011;5241;47.830;12.972;2022-08-01T08:36:33;2.87;;;2.60;;
10389;SDS011;5241;47.830;12.972;2022-08-01T08:38:59;2.80;;;2.60;;
10389;SDS011;5241;47.830;12.972;2022-08-01T08:41:34;2.43;;;2.23;;
10389;SDS011;5241;47.830;12.972;2022-08-01T08:44:00;2.93;;;2.27;;
10389;SDS011;5241;47.830;12.972;2022-08-01T08:46:27;3.17;;;2.50;;
10389;SDS011;5241;47.830;12.972;2022-08-01T08:48:53;4.33;;;2.57;;
10389;SDS011;5241;47.830;12.972;2022-08-01T08:51:20;3.17;;;2.20;;
10389;SDS011;5241;47.830;12.972;2022-08-01T08:53:48;4.57;;;2.60;;
10389;SDS011;5241;47.830;12.972;2022-08-01T08:56:17;2.70;;;2.40;;
10389;SDS011;5241;47.830;12.972;2022-08-01T08:58:43;3.73;;;2.43;;
10389;SDS011;5241;47.830;12.972;2022-08-01T09:01:10;2.30;;;2.10;;
10389;SDS011;5241;47.830;12.972;2022-08-01T09:03:37;2.63;;;2.43;;
10389;SDS011;5241;47.830;12.972;2022-08-01T09:06:03;5.10;;;2.60;;
10389;SDS011;5241;47.830;12.972;2022-08-01T09:46:04;4.00;;;2.60;;
10389;SDS011;5241;47.830;12.972;2022-08-01T09:48:36;2.73;;;2.53;;
10389;SDS011;5241;47.830;12.972;2022-08-01T09:51:04;2.67;;;2.47;;
10389;SDS011;5241;47.830;12.972;2022-08-01T09:53:47;2.33;;;2.13;;
10389;SDS011;5241;47.830;12.972;2022-08-01T09:56:14;2.60;;;2.40;;
10389;SDS011;5241;47.830;12.972;2022-08-01T09:58:49;2.60;;;2.40;;
10389;SDS011;5241;47.830;12.972;2022-08-01T10:01:22;2.90;;;2.60;;
10389;SDS011;5241;47.830;12.972;2022-08-01T10:04:03;2.50;;;2.30;;
10389;SDS011;5241;47.830;12.972;2022-08-01T10:06:34;2.53;;;2.33;;
10389;SDS011;5241;47.830;12.972;2022-08-01T10:09:00;2.80;;;2.50;;
10389;SDS011;5241;47.830;12.972;2022-08-01T10:11:27;3.80;;;2.40;;
10389;SDS011;5241;47.830;12.972;2022-08-01T10:13:53;3.00;;;2.70;;
10389;SDS011;5241;47.830;12.972;2022-08-01T10:16:21;2.30;;;2.10;;
10389;SDS011;5241;47.830;12.972;2022-08-01T10:18:47;2.60;;;2.40;;
10389;SDS011;5241;47.830;12.972;2022-08-01T10:21:13;2.70;;;2.50;;
10389;SDS011;5241;47.830;12.972;2022-08-01T10:23:39;2.73;;;2.43;;
10389;SDS011;5241;47.830;12.972;2022-08-01T10:26:06;3.03;;;2.40;;
10389;SDS011;5241;47.830;12.972;2022-08-01T10:28:34;3.27;;;2.37;;
10389;SDS011;5241;47.830;12.972;2022-08-01T10:31:01;2.53;;;2.33;;
10389;SDS011;5241;47.830;12.972;2022-08-01T10:33:27;3.17;;;2.27;;
10389;SDS011;5241;47.830;12.972;2022-08-01T10:35:54;2.77;;;2.50;;
10389;SDS011;5241;47.830;12.972;2022-08-01T10:38:20;4.77;;;2.50;;
10389;SDS011;5241;47.830;12.972;2022-08-01T10:40:45;2.43;;;2.23;;
10389;SDS011;5241;47.830;12.972;2022-08-01T10:43:11;3.20;;;2.40;;
10389;SDS011;5241;47.830;12.972;2022-08-01T10:45:39;2.47;;;2.27;;
10389;SDS011;5241;47.830;12.972;2022-08-01T10:48:24;4.80;;;2.20;;
10389;SDS011;5241;47.830;12.972;2022-08-01T10:50:58;2.53;;;2.33;;
10389;SDS011;5241;47.830;12.972;2022-08-01T10:53:26;3.10;;;2.13;;
10389;SDS011;5241;47.830;12.972;2022-08-01T10:58:30;2.47;;;2.10;;
10389;SDS011;5241;47.830;12.972;2022-08-01T11:03:40;2.30;;;2.10;;
10389;SDS011;5241;47.830;12.972;2022-08-01T11:06:07;2.40;;;2.20;;
10389;SDS011;5241;47.830;12.972;2022-08-01T11:08:41;2.93;;;2.30;;
10389;SDS011;5241;47.830;12.972;2022-08-01T11:11:15;2.37;;;2.17;;
10389;SDS011;5241;47.830;12.972;2022-08-01T11:16:38;3.50;;;2.40;;
10389;SDS011;5241;47.830;12.972;2022-08-01T11:19:04;2.07;;;1.90;;
10389;SDS011;5241;47.830;12.972;2022-08-01T11:29:43;2.30;;;2.00;;
10389;SDS011;5241;47.830;12.972;2022-08-01T11:32:29;1.80;;;1.70;;
10389;SDS011;5241;47.830;12.972;2022-08-01T11:34:55;4.03;;;2.00;;
10389;SDS011;5241;47.830;12.972;2022-08-01T11:37:27;2.20;;;1.93;;
10389;SDS011;5241;47.830;12.972;2022-08-01T11:42:44;2.50;;;2.10;;
10389;SDS011;5241;47.830;12.972;2022-08-01T11:45:10;1.97;;;1.77;;
10389;SDS011;5241;47.830;12.972;2022-08-01T11:53:01;3.83;;;2.00;;
10389;SDS011;5241;47.830;12.972;2022-08-01T11:55:28;2.60;;;1.70;;
10389;SDS011;5241;47.830;12.972;2022-08-01T12:00:28;2.53;;;1.90;;
10389;SDS011;5241;47.830;12.972;2022-08-01T12:02:56;2.03;;;1.60;;
10389;SDS011;5241;47.830;12.972;2022-08-01T12:05:23;2.80;;;2.00;;
10389;SDS011;5241;47.830;12.972;2022-08-01T12:07:51;1.90;;;1.70;;
10389;SDS011;5241;47.830;12.972;2022-08-01T12:10:19;3.47;;;1.80;;
10389;SDS011;5241;47.830;12.972;2022-08-01T12:12:46;3.20;;;1.70;;
10389;SDS011;5241;47.830;12.972;2022-08-01T12:15:13;2.00;;;1.73;;
10389;SDS011;5241;47.830;12.972;2022-08-01T12:17:41;1.73;;;1.63;;
10389;SDS011;5241;47.830;12.972;2022-08-01T12:20:11;1.90;;;1.73;;
10389;SDS011;5241;47.830;12.972;2022-08-01T12:22:39;2.60;;;1.70;;
10389;SDS011;5241;47.830;12.972;2022-08-01T12:25:08;3.75;;;1.98;;
10389;SDS011;5241;47.830;12.972;2022-08-01T12:27:40;1.75;;;1.65;;
10389;SDS011;5241;47.830;12.972;2022-08-01T12:30:07;2.00;;;1.90;;
10389;SDS011;5241;47.830;12.972;2022-08-01T12:32:38;2.20;;;2.00;;
10389;SDS011;5241;47.830;12.972;2022-08-01T12:35:05;1.80;;;1.70;;
10389;SDS011;5241;47.830;12.972;2022-08-01T12:37:36;3.22;;;1.77;;
10389;SDS011;5241;47.830;12.972;2022-08-01T12:40:09;2.38;;;1.70;;
10389;SDS011;5241;47.830;12.972;2022-08-01T12:43:05;2.65;;;1.65;;
10389;SDS011;5241;47.830;12.972;2022-08-01T12:45:39;2.45;;;2.15;;
10389;SDS011;5241;47.830;12.972;2022-08-01T12:48:12;2.55;;;1.85;;
10389;SDS011;5241;47.830;12.972;2022-08-01T12:50:43;2.60;;;1.80;;
10389;SDS011;5241;47.830;12.972;2022-08-01T12:53:10;2.55;;;1.73;;
10389;SDS011;5241;47.830;12.972;2022-08-01T12:55:45;1.80;;;1.70;;
10389;SDS011;5241;47.830;12.972;2022-08-01T12:58:15;1.75;;;1.65;;
10389;SDS011;5241;47.830;12.972;2022-08-01T13:00:43;2.65;;;1.83;;
10389;SDS011;5241;47.830;12.972;2022-08-01T13:08:16;2.20;;;2.00;;
10389;SDS011;5241;47.830;12.972;2022-08-01T13:10:42;2.10;;;1.90;;
10389;SDS011;5241;47.830;12.972;2022-08-01T13:13:08;2.33;;;1.95;;
10389;SDS011;5241;47.830;12.972;2022-08-01T13:15:36;1.80;;;1.70;;
10389;SDS011;5241;47.830;12.972;2022-08-01T13:23:41;2.95;;;2.20;;
10389;SDS011;5241;47.830;12.972;2022-08-01T13:29:34;2.75;;;1.90;;
10389;SDS011;5241;47.830;12.972;2022-08-01T13:32:19;2.08;;;1.98;;
10389;SDS011;5241;47.830;12.972;2022-08-01T13:34:45;2.00;;;1.90;;
10389;SDS011;5241;47.830;12.972;2022-08-01T13:37:11;3.15;;;1.80;;
10389;SDS011;5241;47.830;12.972;2022-08-01T13:39:37;2.97;;;1.70;;
10389;SDS011;5241;47.830;12.972;2022-08-01T13:42:05;3.60;;;2.20;;
10389;SDS011;5241;47.830;12.972;2022-08-01T13:44:39;3.05;;;2.00;;
10389;SDS011;5241;47.830;12.972;2022-08-01T13:47:05;1.85;;;1.75;;
10389;SDS011;5241;47.830;12.972;2022-08-01T13:49:31;2.38;;;2.17;;
10389;SDS011;5241;47.830;12.972;2022-08-01T13:51:57;2.50;;;2.28;;
10389;SDS011;5241;47.830;12.972;2022-08-01T13:54:24;2.83;;;2.53;;
10389;SDS011;5241;47.830;12.972;2022-08-01T13:56:50;3.20;;;2.10;;
10389;SDS011;5241;47.830;12.972;2022-08-01T13:59:16;4.53;;;2.10;;
10389;SDS011;5241;47.830;12.972;2022-08-01T14:01:42;3.67;;;2.00;;
10389;SDS011;5241;47.830;12.972;2022-08-01T14:04:08;2.92;;;2.00;;
10389;SDS011;5241;47.830;12.972;2022-08-01T14:06:33;4.95;;;2.10;;
10389;SDS011;5241;47.830;12.972;2022-08-01T14:09:00;3.60;;;1.88;;
10389;SDS011;5241;47.830;12.972;2022-08-01T14:11:26;2.20;;;2.00;;
10389;SDS011;5241;47.830;12.972;2022-08-01T14:13:52;2.30;;;1.85;;
10389;SDS011;5241;47.830;12.972;2022-08-01T14:16:17;5.25;;;2.20;;
10389;SDS011;5241;47.830;12.972;2022-08-01T14:18:43;1.90;;;1.80;;
10389;SDS011;5241;47.830;12.972;2022-08-01T14:21:08;2.37;;;1.97;;
10389;SDS011;5241;47.830;12.972;2022-08-01T14:23:34;2.87;;;2.00;;
10389;SDS011;5241;47.830;12.972;2022-08-01T14:25:59;1.80;;;1.70;;
10389;SDS011;5241;47.830;12.972;2022-08-01T14:28:25;2.70;;;1.50;;
10389;SDS011;5241;47.830;12.972;2022-08-01T14:30:52;2.70;;;1.92;;
10389;SDS011;5241;47.830;12.972;2022-08-01T14:33:20;1.93;;;1.80;;
10389;SDS011;5241;47.830;12.972;2022-08-01T14:35:46;2.83;;;1.70;;
10389;SDS011;5241;47.830;12.972;2022-08-01T14:38:11;1.80;;;1.70;;
10389;SDS011;5241;47.830;12.972;2022-08-01T14:40:37;2.75;;;1.70;;
10389;SDS011;5241;47.830;12.972;2022-08-01T14:43:03;2.05;;;1.90;;
10389;SDS011;5241;47.830;12.972;2022-08-01T14:45:28;1.75;;;1.65;;
10389;SDS011;5241;47.830;12.972;2022-08-01T14:47:54;3.17;;;1.92;;
10389;SDS011;5241;47.830;12.972;2022-08-01T14:50:19;2.40;;;1.60;;
10389;SDS011;5241;47.830;12.972;2022-08-01T14:52:45;2.38;;;2.00;;
10389;SDS011;5241;47.830;12.972;2022-08-01T14:55:11;2.28;;;2.08;;
10389;SDS011;5241;47.830;12.972;2022-08-01T14:57:37;2.78;;;1.98;;
10389;SDS011;5241;47.830;12.972;2022-08-01T15:00:04;2.90;;;2.00;;
10389;SDS011;5241;47.830;12.972;2022-08-01T15:02:32;1.83;;;1.73;;
10389;SDS011;5241;47.830;12.972;2022-08-01T15:04:57;1.90;;;1.80;;
10389;SDS011;5241;47.830;12.972;2022-08-01T15:07:23;1.60;;;1.50;;
10389;SDS011;5241;47.830;12.972;2022-08-01T15:09:48;2.83;;;1.52;;
10389;SDS011;5241;47.830;12.972;2022-08-01T15:12:14;1.70;;;1.60;;
10389;SDS011;5241;47.830;12.972;2022-08-01T15:14:39;1.60;;;1.50;;
10389;SDS011;5241;47.830;12.972;2022-08-01T15:19:47;1.50;;;1.40;;
10389;SDS011;5241;47.830;12.972;2022-08-01T15:22:14;2.42;;;1.77;;
10389;SDS011;5241;47.830;12.972;2022-08-01T15:24:40;1.70;;;1.60;;
10389;SDS011;5241;47.830;12.972;2022-08-01T15:27:06;2.35;;;1.85;;
10389;SDS011;5241;47.830;12.972;2022-08-01T15:29:33;1.65;;;1.42;;
10389;SDS011;5241;47.830;12.972;2022-08-01T15:31:59;1.92;;;1.83;;
10389;SDS011;5241;47.830;12.972;2022-08-01T15:34:25;2.30;;;1.67;;
10389;SDS011;5241;47.830;12.972;2022-08-01T15:36:51;2.13;;;1.83;;
10389;SDS011;5241;47.830;12.972;2022-08-01T15:39:16;1.83;;;1.70;;
10389;SDS011;5241;47.830;12.972;2022-08-01T15:41:42;2.13;;;1.92;;
10389;SDS011;5241;47.830;12.972;2022-08-01T15:44:08;2.33;;;2.13;;
10389;SDS011;5241;47.830;12.972;2022-08-01T15:46:33;4.22;;;1.70;;
10389;SDS011;5241;47.830;12.972;2022-08-01T15:49:03;1.50;;;1.30;;
10389;SDS011;5241;47.830;12.972;2022-08-01T15:51:30;3.42;;;1.75;;
10389;SDS011;5241;47.830;12.972;2022-08-01T15:53:55;2.20;;;1.53;;
10389;SDS011;5241;47.830;12.972;2022-08-01T15:56:21;2.57;;;1.40;;
10389;SDS011;5241;47.830;12.972;2022-08-01T15:58:47;1.77;;;1.50;;
10389;SDS011;5241;47.830;12.972;2022-08-01T16:01:12;1.70;;;1.60;;
10389;SDS011;5241;47.830;12.972;2022-08-01T16:03:38;1.77;;;1.40;;
10389;SDS011;5241;47.830;12.972;2022-08-01T16:06:04;4.03;;;1.57;;
10389;SDS011;5241;47.830;12.972;2022-08-01T16:08:29;1.77;;;1.57;;
10389;SDS011;5241;47.830;12.972;2022-08-01T16:10:55;1.90;;;1.70;;
10389;SDS011;5241;47.830;12.972;2022-08-01T16:13:20;2.00;;;1.70;;
10389;SDS011;5241;47.830;12.972;2022-08-01T16:15:46;2.87;;;1.70;;
10389;SDS011;5241;47.830;12.972;2022-08-01T16:18:11;2.10;;;1.80;;
10389;SDS011;5241;47.830;12.972;2022-08-01T16:20:38;2.77;;;1.50;;
10389;SDS011;5241;47.830;12.972;2022-08-01T16:23:04;1.97;;;1.50;;